sensor_id;sensor_type;location;lat;lon;timestamp;P1;durP1;ratioP1;P2;durP2;ratioP2
10902;SDS011;5504;47.312;11.060;2022-12-29T00:01:39;4.53;;;2.17;;
10902;SDS011;5504;47.312;11.060;2022-12-29T00:04:05;4.10;;;1.90;;
10902;SDS011;5504;47.312;11.060;2022-12-29T00:06:31;2.77;;;1.90;;
10902;SDS011;5504;47.312;11.060;2022-12-29T00:08:57;3.30;;;2.10;;
10902;SDS011;5504;47.312;11.060;2022-12-29T00:11:23;1.77;;;1.67;;
10902;SDS011;5504;47.312;11.060;2022-12-29T00:13:51;3.00;;;1.90;;
10902;SDS011;5504;47.312;11.060;2022-12-29T00:16:36;2.90;;;2.33;;
10902;SDS011;5504;47.312;11.060;2022-12-29T00:19:02;4.47;;;2.80;;
10902;SDS011;5504;47.312;11.060;2022-12-29T00:21:29;2.97;;;2.53;;
10902;SDS011;5504;47.312;11.060;2022-12-29T00:24:15;3.30;;;2.23;;
10902;SDS011;5504;47.312;11.060;2022-12-29T00:29:48;3.07;;;2.30;;
10902;SDS011;5504;47.312;11.060;2022-12-29T00:32:32;3.30;;;2.43;;
10902;SDS011;5504;47.312;11.060;2022-12-29T00:35:23;2.77;;;1.97;;
10902;SDS011;5504;47.312;11.060;2022-12-29T00:37:55;2.00;;;1.80;;
10902;SDS011;5504;47.312;11.060;2022-12-29T00:40:42;2.63;;;2.20;;
10902;SDS011;5504;47.312;11.060;2022-12-29T00:43:26;3.20;;;2.07;;
10902;SDS011;5504;47.312;11.060;2022-12-29T00:46:10;3.93;;;2.50;;
10902;SDS011;5504;47.312;11.060;2022-12-29T00:48:36;3.30;;;2.40;;
10902;SDS011;5504;47.312;11.060;2022-12-29T00:51:20;2.37;;;2.10;;
10902;SDS011;5504;47.312;11.060;2022-12-29T00:53:45;2.50;;;1.90;;
10902;SDS011;5504;47.312;11.060;2022-12-29T00:56:11;3.03;;;2.20;;
10902;SDS011;5504;47.312;11.060;2022-12-29T00:58:37;3.53;;;2.20;;
10902;SDS011;5504;47.312;11.060;2022-12-29T01:01:03;2.30;;;1.90;;
10902;SDS011;5504;47.312;11.060;2022-12-29T01:03:31;2.80;;;1.90;;
10902;SDS011;5504;47.312;11.060;2022-12-29T01:05:59;3.33;;;2.20;;
10902;SDS011;5504;47.312;11.060;2022-12-29T01:08:29;3.30;;;2.30;;
10902;SDS011;5504;47.312;11.060;2022-12-29T01:11:06;2.93;;;2.20;;
10902;SDS011;5504;47.312;11.060;2022-12-29T01:13:34;3.80;;;2.47;;
10902;SDS011;5504;47.312;11.060;2022-12-29T01:16:00;2.93;;;2.13;;
10902;SDS011;5504;47.312;11.060;2022-12-29T01:18:26;2.27;;;1.90;;
10902;SDS011;5504;47.312;11.060;2022-12-29T01:21:05;2.50;;;2.00;;
10902;SDS011;5504;47.312;11.060;2022-12-29T01:23:31;2.17;;;1.97;;
10902;SDS011;5504;47.312;11.060;2022-12-29T01:25:57;2.43;;;2.23;;
10902;SDS011;5504;47.312;11.060;2022-12-29T01:28:32;3.10;;;2.30;;
10902;SDS011;5504;47.312;11.060;2022-12-29T01:31:00;2.93;;;2.30;;
10902;SDS011;5504;47.312;11.060;2022-12-29T01:33:26;2.57;;;1.80;;
10902;SDS011;5504;47.312;11.060;2022-12-29T01:35:51;2.63;;;1.60;;
10902;SDS011;5504;47.312;11.060;2022-12-29T01:38:17;1.77;;;1.60;;
10902;SDS011;5504;47.312;11.060;2022-12-29T01:40:44;3.33;;;1.87;;
10902;SDS011;5504;47.312;11.060;2022-12-29T01:43:11;2.47;;;1.83;;
10902;SDS011;5504;47.312;11.060;2022-12-29T01:45:41;2.47;;;1.90;;
10902;SDS011;5504;47.312;11.060;2022-12-29T01:48:10;2.43;;;2.00;;
10902;SDS011;5504;47.312;11.060;2022-12-29T01:50:39;2.80;;;2.10;;
10902;SDS011;5504;47.312;11.060;2022-12-29T01:53:13;1.67;;;1.40;;
10902;SDS011;5504;47.312;11.060;2022-12-29T01:55:54;2.47;;;1.90;;
10902;SDS011;5504;47.312;11.060;2022-12-29T01:58:23;2.87;;;1.97;;
10902;SDS011;5504;47.312;11.060;2022-12-29T02:00:54;2.20;;;1.80;;
10902;SDS011;5504;47.312;11.060;2022-12-29T02:03:20;3.00;;;2.00;;
10902;SDS011;5504;47.312;11.060;2022-12-29T02:05:56;2.37;;;1.70;;
10902;SDS011;5504;47.312;11.060;2022-12-29T02:08:23;1.70;;;1.50;;
10902;SDS011;5504;47.312;11.060;2022-12-29T02:10:52;1.97;;;1.70;;
10902;SDS011;5504;47.312;11.060;2022-12-29T02:13:19;1.80;;;1.40;;
10902;SDS011;5504;47.312;11.060;2022-12-29T02:41:16;2.30;;;1.60;;
10902;SDS011;5504;47.312;11.060;2022-12-29T02:44:15;1.93;;;1.60;;
10902;SDS011;5504;47.312;11.060;2022-12-29T02:49:40;2.07;;;1.60;;
10902;SDS011;5504;47.312;11.060;2022-12-29T02:52:20;1.83;;;1.50;;
10902;SDS011;5504;47.312;11.060;2022-12-29T02:54:55;1.83;;;1.73;;
10902;SDS011;5504;47.312;11.060;2022-12-29T02:59:53;2.03;;;1.47;;
10902;SDS011;5504;47.312;11.060;2022-12-29T03:11:18;1.80;;;1.60;;
10902;SDS011;5504;47.312;11.060;2022-12-29T03:14:11;1.80;;;1.53;;
10902;SDS011;5504;47.312;11.060;2022-12-29T03:17:35;2.43;;;1.70;;
10902;SDS011;5504;47.312;11.060;2022-12-29T03:20:10;2.93;;;1.80;;
10902;SDS011;5504;47.312;11.060;2022-12-29T03:22:43;2.27;;;1.70;;
10902;SDS011;5504;47.312;11.060;2022-12-29T03:25:17;2.30;;;1.60;;
10902;SDS011;5504;47.312;11.060;2022-12-29T03:27:52;1.67;;;1.57;;
10902;SDS011;5504;47.312;11.060;2022-12-29T03:30:21;2.27;;;1.60;;
10902;SDS011;5504;47.312;11.060;2022-12-29T03:32:49;2.00;;;1.80;;
10902;SDS011;5504;47.312;11.060;2022-12-29T03:35:20;2.37;;;1.60;;
10902;SDS011;5504;47.312;11.060;2022-12-29T03:40:32;2.77;;;1.80;;
10902;SDS011;5504;47.312;11.060;2022-12-29T03:42:59;2.27;;;1.77;;
10902;SDS011;5504;47.312;11.060;2022-12-29T03:45:26;1.67;;;1.40;;
10902;SDS011;5504;47.312;11.060;2022-12-29T03:47:53;2.20;;;1.70;;
10902;SDS011;5504;47.312;11.060;2022-12-29T03:50:19;2.07;;;1.50;;
10902;SDS011;5504;47.312;11.060;2022-12-29T03:52:45;2.57;;;1.90;;
10902;SDS011;5504;47.312;11.060;2022-12-29T03:55:10;2.17;;;1.50;;
10902;SDS011;5504;47.312;11.060;2022-12-29T03:57:36;2.80;;;1.57;;
10902;SDS011;5504;47.312;11.060;2022-12-29T04:00:03;3.10;;;1.67;;
10902;SDS011;5504;47.312;11.060;2022-12-29T04:02:29;2.27;;;1.70;;
10902;SDS011;5504;47.312;11.060;2022-12-29T04:04:55;2.10;;;1.60;;
10902;SDS011;5504;47.312;11.060;2022-12-29T04:07:21;1.67;;;1.57;;
10902;SDS011;5504;47.312;11.060;2022-12-29T04:09:46;1.30;;;1.20;;
10902;SDS011;5504;47.312;11.060;2022-12-29T04:12:12;1.47;;;1.30;;
10902;SDS011;5504;47.312;11.060;2022-12-29T04:14:39;1.77;;;1.50;;
10902;SDS011;5504;47.312;11.060;2022-12-29T04:17:05;1.60;;;1.50;;
10902;SDS011;5504;47.312;11.060;2022-12-29T04:19:31;2.13;;;1.50;;
10902;SDS011;5504;47.312;11.060;2022-12-29T04:21:57;1.93;;;1.60;;
10902;SDS011;5504;47.312;11.060;2022-12-29T04:24:23;1.93;;;1.60;;
10902;SDS011;5504;47.312;11.060;2022-12-29T04:26:48;2.67;;;1.90;;
10902;SDS011;5504;47.312;11.060;2022-12-29T04:29:14;2.07;;;1.60;;
10902;SDS011;5504;47.312;11.060;2022-12-29T04:31:40;1.93;;;1.60;;
10902;SDS011;5504;47.312;11.060;2022-12-29T04:34:06;2.87;;;2.00;;
10902;SDS011;5504;47.312;11.060;2022-12-29T04:36:31;3.97;;;2.10;;
10902;SDS011;5504;47.312;11.060;2022-12-29T04:38:57;2.87;;;2.03;;
10902;SDS011;5504;47.312;11.060;2022-12-29T04:41:23;2.90;;;1.80;;
10902;SDS011;5504;47.312;11.060;2022-12-29T04:43:49;3.70;;;1.90;;
10902;SDS011;5504;47.312;11.060;2022-12-29T04:46:14;1.70;;;1.60;;
10902;SDS011;5504;47.312;11.060;2022-12-29T04:48:40;2.37;;;1.80;;
10902;SDS011;5504;47.312;11.060;2022-12-29T04:51:06;3.17;;;1.80;;
10902;SDS011;5504;47.312;11.060;2022-12-29T04:53:31;1.90;;;1.73;;
10902;SDS011;5504;47.312;11.060;2022-12-29T04:55:57;2.40;;;1.73;;
10902;SDS011;5504;47.312;11.060;2022-12-29T04:58:23;2.80;;;1.90;;
10902;SDS011;5504;47.312;11.060;2022-12-29T05:00:49;1.80;;;1.60;;
10902;SDS011;5504;47.312;11.060;2022-12-29T05:03:16;2.53;;;1.70;;
10902;SDS011;5504;47.312;11.060;2022-12-29T05:05:42;2.33;;;1.70;;
10902;SDS011;5504;47.312;11.060;2022-12-29T05:08:07;2.03;;;1.60;;
10902;SDS011;5504;47.312;11.060;2022-12-29T05:10:33;2.10;;;1.70;;
10902;SDS011;5504;47.312;11.060;2022-12-29T05:12:59;2.10;;;1.60;;
10902;SDS011;5504;47.312;11.060;2022-12-29T05:15:26;2.37;;;1.90;;
10902;SDS011;5504;47.312;11.060;2022-12-29T05:17:51;2.30;;;1.80;;
10902;SDS011;5504;47.312;11.060;2022-12-29T05:20:17;1.93;;;1.60;;
10902;SDS011;5504;47.312;11.060;2022-12-29T05:22:43;2.43;;;1.80;;
10902;SDS011;5504;47.312;11.060;2022-12-29T05:25:09;2.30;;;1.80;;
10902;SDS011;5504;47.312;11.060;2022-12-29T05:27:35;1.97;;;1.70;;
10902;SDS011;5504;47.312;11.060;2022-12-29T05:30:01;2.50;;;2.10;;
10902;SDS011;5504;47.312;11.060;2022-12-29T05:32:27;1.60;;;1.50;;
10902;SDS011;5504;47.312;11.060;2022-12-29T05:34:53;2.10;;;1.57;;
10902;SDS011;5504;47.312;11.060;2022-12-29T05:37:19;2.03;;;1.70;;
10902;SDS011;5504;47.312;11.060;2022-12-29T05:39:44;2.57;;;2.03;;
10902;SDS011;5504;47.312;11.060;2022-12-29T05:42:10;2.70;;;1.60;;
10902;SDS011;5504;47.312;11.060;2022-12-29T05:44:36;1.97;;;1.63;;
10902;SDS011;5504;47.312;11.060;2022-12-29T05:47:01;2.27;;;1.60;;
10902;SDS011;5504;47.312;11.060;2022-12-29T05:49:27;2.10;;;1.73;;
10902;SDS011;5504;47.312;11.060;2022-12-29T05:51:53;2.30;;;1.70;;
10902;SDS011;5504;47.312;11.060;2022-12-29T05:54:18;2.97;;;1.60;;
10902;SDS011;5504;47.312;11.060;2022-12-29T05:56:44;2.43;;;1.80;;
10902;SDS011;5504;47.312;11.060;2022-12-29T05:59:10;3.37;;;1.80;;
10902;SDS011;5504;47.312;11.060;2022-12-29T06:01:35;1.60;;;1.50;;
10902;SDS011;5504;47.312;11.060;2022-12-29T06:04:01;2.13;;;1.30;;
10902;SDS011;5504;47.312;11.060;2022-12-29T06:06:27;2.60;;;1.80;;
10902;SDS011;5504;47.312;11.060;2022-12-29T06:08:52;1.80;;;1.57;;
10902;SDS011;5504;47.312;11.060;2022-12-29T06:11:18;2.53;;;1.77;;
10902;SDS011;5504;47.312;11.060;2022-12-29T06:13:44;1.80;;;1.60;;
10902;SDS011;5504;47.312;11.060;2022-12-29T06:16:09;1.73;;;1.63;;
10902;SDS011;5504;47.312;11.060;2022-12-29T06:18:35;2.00;;;1.70;;
10902;SDS011;5504;47.312;11.060;2022-12-29T06:21:01;2.53;;;1.80;;
10902;SDS011;5504;47.312;11.060;2022-12-29T06:23:29;2.43;;;2.00;;
10902;SDS011;5504;47.312;11.060;2022-12-29T06:25:55;1.97;;;1.77;;
10902;SDS011;5504;47.312;11.060;2022-12-29T06:28:21;2.63;;;1.73;;
10902;SDS011;5504;47.312;11.060;2022-12-29T06:30:47;3.47;;;2.00;;
10902;SDS011;5504;47.312;11.060;2022-12-29T06:33:13;2.00;;;1.67;;
10902;SDS011;5504;47.312;11.060;2022-12-29T06:35:40;2.70;;;1.50;;
10902;SDS011;5504;47.312;11.060;2022-12-29T06:38:07;2.77;;;1.90;;
10902;SDS011;5504;47.312;11.060;2022-12-29T06:40:33;2.20;;;2.00;;
10902;SDS011;5504;47.312;11.060;2022-12-29T06:42:58;2.50;;;2.07;;
10902;SDS011;5504;47.312;11.060;2022-12-29T06:45:24;2.47;;;1.90;;
10902;SDS011;5504;47.312;11.060;2022-12-29T06:47:50;3.13;;;2.50;;
10902;SDS011;5504;47.312;11.060;2022-12-29T06:50:15;3.00;;;2.23;;
10902;SDS011;5504;47.312;11.060;2022-12-29T06:52:41;3.17;;;1.93;;
10902;SDS011;5504;47.312;11.060;2022-12-29T06:55:07;3.40;;;2.33;;
10902;SDS011;5504;47.312;11.060;2022-12-29T06:57:33;3.00;;;2.37;;
10902;SDS011;5504;47.312;11.060;2022-12-29T06:59:59;3.37;;;2.60;;
10902;SDS011;5504;47.312;11.060;2022-12-29T07:02:24;3.23;;;2.00;;
10902;SDS011;5504;47.312;11.060;2022-12-29T07:04:53;2.93;;;2.17;;
10902;SDS011;5504;47.312;11.060;2022-12-29T07:07:20;2.80;;;2.10;;
10902;SDS011;5504;47.312;11.060;2022-12-29T07:09:46;4.27;;;2.00;;
10902;SDS011;5504;47.312;11.060;2022-12-29T07:12:12;2.60;;;2.03;;
10902;SDS011;5504;47.312;11.060;2022-12-29T07:14:37;2.73;;;2.17;;
10902;SDS011;5504;47.312;11.060;2022-12-29T07:17:04;3.37;;;2.50;;
10902;SDS011;5504;47.312;11.060;2022-12-29T07:19:31;3.40;;;2.17;;
10902;SDS011;5504;47.312;11.060;2022-12-29T07:21:57;2.30;;;2.10;;
10902;SDS011;5504;47.312;11.060;2022-12-29T07:24:23;2.10;;;1.87;;
10902;SDS011;5504;47.312;11.060;2022-12-29T07:26:50;2.57;;;1.77;;
10902;SDS011;5504;47.312;11.060;2022-12-29T07:29:16;4.10;;;2.67;;
10902;SDS011;5504;47.312;11.060;2022-12-29T07:31:42;4.70;;;2.80;;
10902;SDS011;5504;47.312;11.060;2022-12-29T07:34:09;3.23;;;2.30;;
10902;SDS011;5504;47.312;11.060;2022-12-29T07:36:34;3.93;;;2.57;;
10902;SDS011;5504;47.312;11.060;2022-12-29T07:39:00;4.27;;;2.50;;
10902;SDS011;5504;47.312;11.060;2022-12-29T07:41:27;5.00;;;4.00;;
10902;SDS011;5504;47.312;11.060;2022-12-29T07:43:52;4.83;;;3.50;;
10902;SDS011;5504;47.312;11.060;2022-12-29T07:46:18;4.40;;;3.23;;
10902;SDS011;5504;47.312;11.060;2022-12-29T07:48:44;4.33;;;2.83;;
10902;SDS011;5504;47.312;11.060;2022-12-29T07:51:09;3.47;;;2.70;;
10902;SDS011;5504;47.312;11.060;2022-12-29T07:53:36;3.83;;;2.90;;
10902;SDS011;5504;47.312;11.060;2022-12-29T07:56:02;4.47;;;3.10;;
10902;SDS011;5504;47.312;11.060;2022-12-29T07:58:28;3.97;;;2.80;;
10902;SDS011;5504;47.312;11.060;2022-12-29T08:00:54;4.70;;;3.07;;
10902;SDS011;5504;47.312;11.060;2022-12-29T08:03:20;8.93;;;5.10;;
10902;SDS011;5504;47.312;11.060;2022-12-29T08:05:46;7.63;;;5.07;;
10902;SDS011;5504;47.312;11.060;2022-12-29T08:08:12;4.60;;;3.40;;
10902;SDS011;5504;47.312;11.060;2022-12-29T08:10:38;4.17;;;3.30;;
10902;SDS011;5504;47.312;11.060;2022-12-29T08:13:04;4.80;;;3.10;;
10902;SDS011;5504;47.312;11.060;2022-12-29T08:15:29;3.77;;;2.90;;
10902;SDS011;5504;47.312;11.060;2022-12-29T08:17:55;4.10;;;2.97;;
10902;SDS011;5504;47.312;11.060;2022-12-29T08:20:21;3.63;;;2.83;;
10902;SDS011;5504;47.312;11.060;2022-12-29T08:22:46;4.93;;;3.20;;
10902;SDS011;5504;47.312;11.060;2022-12-29T08:25:12;2.93;;;2.33;;
10902;SDS011;5504;47.312;11.060;2022-12-29T08:27:38;3.67;;;2.90;;
10902;SDS011;5504;47.312;11.060;2022-12-29T08:30:03;3.47;;;2.60;;
10902;SDS011;5504;47.312;11.060;2022-12-29T08:32:30;2.63;;;2.30;;
10902;SDS011;5504;47.312;11.060;2022-12-29T08:34:55;2.27;;;1.90;;
10902;SDS011;5504;47.312;11.060;2022-12-29T08:37:21;2.37;;;1.90;;
10902;SDS011;5504;47.312;11.060;2022-12-29T08:39:47;2.80;;;2.03;;
10902;SDS011;5504;47.312;11.060;2022-12-29T08:42:13;3.40;;;1.93;;
10902;SDS011;5504;47.312;11.060;2022-12-29T08:44:39;3.83;;;2.93;;
10902;SDS011;5504;47.312;11.060;2022-12-29T08:47:05;3.00;;;2.50;;
10902;SDS011;5504;47.312;11.060;2022-12-29T08:49:31;2.87;;;2.17;;
10902;SDS011;5504;47.312;11.060;2022-12-29T08:51:58;2.43;;;2.10;;
10902;SDS011;5504;47.312;11.060;2022-12-29T08:54:24;2.53;;;2.10;;
10902;SDS011;5504;47.312;11.060;2022-12-29T08:56:50;7.03;;;5.27;;
10902;SDS011;5504;47.312;11.060;2022-12-29T08:59:15;7.10;;;4.80;;
10902;SDS011;5504;47.312;11.060;2022-12-29T09:01:41;7.83;;;5.47;;
10902;SDS011;5504;47.312;11.060;2022-12-29T09:04:07;8.97;;;6.27;;
10902;SDS011;5504;47.312;11.060;2022-12-29T09:06:33;10.63;;;9.30;;
10902;SDS011;5504;47.312;11.060;2022-12-29T09:08:58;29.93;;;25.47;;
10902;SDS011;5504;47.312;11.060;2022-12-29T09:11:24;19.13;;;15.07;;
10902;SDS011;5504;47.312;11.060;2022-12-29T09:13:51;10.97;;;8.90;;
10902;SDS011;5504;47.312;11.060;2022-12-29T09:16:18;14.33;;;10.40;;
10902;SDS011;5504;47.312;11.060;2022-12-29T09:18:45;13.63;;;11.27;;
10902;SDS011;5504;47.312;11.060;2022-12-29T09:21:11;14.13;;;11.37;;
10902;SDS011;5504;47.312;11.060;2022-12-29T09:23:38;12.90;;;10.63;;
10902;SDS011;5504;47.312;11.060;2022-12-29T09:26:04;13.27;;;10.57;;
10902;SDS011;5504;47.312;11.060;2022-12-29T09:28:30;12.50;;;9.33;;
10902;SDS011;5504;47.312;11.060;2022-12-29T09:30:56;16.13;;;12.10;;
10902;SDS011;5504;47.312;11.060;2022-12-29T09:33:23;15.17;;;12.03;;
10902;SDS011;5504;47.312;11.060;2022-12-29T09:35:53;17.20;;;13.50;;
10902;SDS011;5504;47.312;11.060;2022-12-29T09:38:21;21.37;;;13.87;;
10902;SDS011;5504;47.312;11.060;2022-12-29T09:40:51;16.90;;;13.23;;
10902;SDS011;5504;47.312;11.060;2022-12-29T09:48:34;10.83;;;7.80;;
10902;SDS011;5504;47.312;11.060;2022-12-29T09:51:10;10.83;;;8.30;;
10902;SDS011;5504;47.312;11.060;2022-12-29T09:53:44;8.57;;;6.63;;
10902;SDS011;5504;47.312;11.060;2022-12-29T09:56:16;17.10;;;12.57;;
10902;SDS011;5504;47.312;11.060;2022-12-29T09:58:47;15.40;;;12.10;;
10902;SDS011;5504;47.312;11.060;2022-12-29T10:04:03;20.43;;;14.33;;
10902;SDS011;5504;47.312;11.060;2022-12-29T10:09:19;13.90;;;11.00;;
10902;SDS011;5504;47.312;11.060;2022-12-29T10:25:38;5.20;;;3.87;;
10902;SDS011;5504;47.312;11.060;2022-12-29T10:28:10;3.40;;;3.10;;
10902;SDS011;5504;47.312;11.060;2022-12-29T10:30:48;4.20;;;3.20;;
10902;SDS011;5504;47.312;11.060;2022-12-29T10:33:17;5.00;;;3.47;;
10902;SDS011;5504;47.312;11.060;2022-12-29T10:35:48;3.87;;;3.10;;
10902;SDS011;5504;47.312;11.060;2022-12-29T10:38:38;3.57;;;3.10;;
10902;SDS011;5504;47.312;11.060;2022-12-29T10:43:44;8.13;;;6.10;;
10902;SDS011;5504;47.312;11.060;2022-12-29T10:46:13;8.57;;;6.23;;
10902;SDS011;5504;47.312;11.060;2022-12-29T10:48:50;10.77;;;7.83;;
10902;SDS011;5504;47.312;11.060;2022-12-29T10:51:26;10.37;;;7.03;;
10902;SDS011;5504;47.312;11.060;2022-12-29T10:56:43;8.00;;;6.03;;
10902;SDS011;5504;47.312;11.060;2022-12-29T10:59:23;7.80;;;5.70;;
10902;SDS011;5504;47.312;11.060;2022-12-29T11:02:01;8.87;;;5.70;;
10902;SDS011;5504;47.312;11.060;2022-12-29T11:07:02;7.87;;;6.37;;
10902;SDS011;5504;47.312;11.060;2022-12-29T11:09:29;9.33;;;7.07;;
10902;SDS011;5504;47.312;11.060;2022-12-29T11:11:57;7.50;;;6.60;;
10902;SDS011;5504;47.312;11.060;2022-12-29T11:14:27;18.37;;;15.80;;
10902;SDS011;5504;47.312;11.060;2022-12-29T11:16:59;12.77;;;8.93;;
10902;SDS011;5504;47.312;11.060;2022-12-29T11:19:27;11.57;;;8.60;;
10902;SDS011;5504;47.312;11.060;2022-12-29T11:21:56;11.67;;;7.87;;
10902;SDS011;5504;47.312;11.060;2022-12-29T11:24:46;8.73;;;6.43;;
10902;SDS011;5504;47.312;11.060;2022-12-29T11:29:51;6.43;;;5.27;;
10902;SDS011;5504;47.312;11.060;2022-12-29T11:32:19;9.77;;;7.33;;
10902;SDS011;5504;47.312;11.060;2022-12-29T11:34:45;7.33;;;5.27;;
10902;SDS011;5504;47.312;11.060;2022-12-29T11:37:13;6.50;;;5.30;;
10902;SDS011;5504;47.312;11.060;2022-12-29T11:39:55;5.87;;;4.93;;
10902;SDS011;5504;47.312;11.060;2022-12-29T11:42:37;5.80;;;4.17;;
10902;SDS011;5504;47.312;11.060;2022-12-29T11:45:06;5.47;;;4.00;;
10902;SDS011;5504;47.312;11.060;2022-12-29T11:47:44;4.73;;;3.87;;
10902;SDS011;5504;47.312;11.060;2022-12-29T11:50:28;6.20;;;5.10;;
10902;SDS011;5504;47.312;11.060;2022-12-29T11:53:07;6.73;;;5.50;;
10902;SDS011;5504;47.312;11.060;2022-12-29T11:55:58;5.70;;;5.07;;
10902;SDS011;5504;47.312;11.060;2022-12-29T11:58:31;7.03;;;4.77;;
10902;SDS011;5504;47.312;11.060;2022-12-29T12:01:00;6.83;;;5.10;;
10902;SDS011;5504;47.312;11.060;2022-12-29T12:07:00;7.37;;;6.03;;
10902;SDS011;5504;47.312;11.060;2022-12-29T12:09:36;5.87;;;5.10;;
10902;SDS011;5504;47.312;11.060;2022-12-29T12:12:15;5.00;;;4.13;;
10902;SDS011;5504;47.312;11.060;2022-12-29T12:14:53;4.53;;;3.27;;
10902;SDS011;5504;47.312;11.060;2022-12-29T12:17:37;7.80;;;5.73;;
10902;SDS011;5504;47.312;11.060;2022-12-29T12:20:16;11.13;;;7.47;;
10902;SDS011;5504;47.312;11.060;2022-12-29T12:26:12;9.23;;;7.23;;
10902;SDS011;5504;47.312;11.060;2022-12-29T12:33:59;4.07;;;3.17;;
10902;SDS011;5504;47.312;11.060;2022-12-29T12:36:33;4.83;;;3.50;;
10902;SDS011;5504;47.312;11.060;2022-12-29T12:39:11;5.77;;;3.17;;
10902;SDS011;5504;47.312;11.060;2022-12-29T12:44:45;5.47;;;4.50;;
10902;SDS011;5504;47.312;11.060;2022-12-29T13:15:18;6.43;;;4.73;;
10902;SDS011;5504;47.312;11.060;2022-12-29T13:17:44;8.17;;;5.60;;
10902;SDS011;5504;47.312;11.060;2022-12-29T13:20:36;12.30;;;6.73;;
10902;SDS011;5504;47.312;11.060;2022-12-29T13:28:42;6.10;;;3.80;;
10902;SDS011;5504;47.312;11.060;2022-12-29T13:31:20;4.40;;;3.60;;
10902;SDS011;5504;47.312;11.060;2022-12-29T13:37:01;3.83;;;2.90;;
10902;SDS011;5504;47.312;11.060;2022-12-29T13:39:51;3.37;;;3.07;;
10902;SDS011;5504;47.312;11.060;2022-12-29T13:42:20;4.20;;;2.67;;
10902;SDS011;5504;47.312;11.060;2022-12-29T13:44:47;4.30;;;3.33;;
10902;SDS011;5504;47.312;11.060;2022-12-29T13:49:53;3.03;;;2.20;;
10902;SDS011;5504;47.312;11.060;2022-12-29T13:52:32;3.37;;;2.27;;
10902;SDS011;5504;47.312;11.060;2022-12-29T13:57:52;4.50;;;3.27;;
10902;SDS011;5504;47.312;11.060;2022-12-29T14:00:19;2.57;;;2.20;;
10902;SDS011;5504;47.312;11.060;2022-12-29T14:07:46;3.07;;;2.30;;
10902;SDS011;5504;47.312;11.060;2022-12-29T14:10:36;2.30;;;2.10;;
10902;SDS011;5504;47.312;11.060;2022-12-29T14:15:39;4.10;;;2.20;;
10902;SDS011;5504;47.312;11.060;2022-12-29T14:20:50;2.90;;;2.20;;
10902;SDS011;5504;47.312;11.060;2022-12-29T14:30:59;3.20;;;2.37;;
10902;SDS011;5504;47.312;11.060;2022-12-29T14:33:27;2.80;;;2.20;;
10902;SDS011;5504;47.312;11.060;2022-12-29T14:36:18;2.50;;;2.30;;
10902;SDS011;5504;47.312;11.060;2022-12-29T14:38:49;3.67;;;2.57;;
10902;SDS011;5504;47.312;11.060;2022-12-29T14:41:16;2.70;;;2.33;;
10902;SDS011;5504;47.312;11.060;2022-12-29T14:43:56;2.13;;;1.93;;
10902;SDS011;5504;47.312;11.060;2022-12-29T14:49:22;2.90;;;2.60;;
10902;SDS011;5504;47.312;11.060;2022-12-29T14:54:43;3.33;;;2.20;;
10902;SDS011;5504;47.312;11.060;2022-12-29T14:57:17;3.37;;;2.40;;
10902;SDS011;5504;47.312;11.060;2022-12-29T14:59:53;2.77;;;2.40;;
10902;SDS011;5504;47.312;11.060;2022-12-29T15:02:23;3.50;;;2.70;;
10902;SDS011;5504;47.312;11.060;2022-12-29T15:04:51;3.77;;;2.60;;
10902;SDS011;5504;47.312;11.060;2022-12-29T15:07:23;2.70;;;2.17;;
10902;SDS011;5504;47.312;11.060;2022-12-29T15:09:53;3.93;;;2.77;;
10902;SDS011;5504;47.312;11.060;2022-12-29T15:12:37;2.50;;;2.30;;
10902;SDS011;5504;47.312;11.060;2022-12-29T15:15:17;3.90;;;2.33;;
10902;SDS011;5504;47.312;11.060;2022-12-29T15:17:46;2.47;;;2.23;;
10902;SDS011;5504;47.312;11.060;2022-12-29T15:20:28;3.83;;;2.97;;
10902;SDS011;5504;47.312;11.060;2022-12-29T15:23:03;3.50;;;2.60;;
10902;SDS011;5504;47.312;11.060;2022-12-29T15:25:35;3.20;;;2.40;;
10902;SDS011;5504;47.312;11.060;2022-12-29T15:28:02;4.43;;;3.37;;
10902;SDS011;5504;47.312;11.060;2022-12-29T15:30:31;5.93;;;4.40;;
10902;SDS011;5504;47.312;11.060;2022-12-29T15:32:57;3.63;;;2.60;;
10902;SDS011;5504;47.312;11.060;2022-12-29T15:35:33;5.10;;;3.20;;
10902;SDS011;5504;47.312;11.060;2022-12-29T15:38:00;5.27;;;4.00;;
10902;SDS011;5504;47.312;11.060;2022-12-29T15:40:45;3.47;;;2.80;;
10902;SDS011;5504;47.312;11.060;2022-12-29T15:43:27;6.07;;;4.60;;
10902;SDS011;5504;47.312;11.060;2022-12-29T15:46:07;12.87;;;9.00;;
10902;SDS011;5504;47.312;11.060;2022-12-29T15:48:35;5.00;;;3.70;;
10902;SDS011;5504;47.312;11.060;2022-12-29T15:51:03;7.70;;;4.40;;
10902;SDS011;5504;47.312;11.060;2022-12-29T15:53:36;5.27;;;4.10;;
10902;SDS011;5504;47.312;11.060;2022-12-29T15:56:05;5.73;;;4.93;;
10902;SDS011;5504;47.312;11.060;2022-12-29T15:58:39;5.50;;;4.63;;
10902;SDS011;5504;47.312;11.060;2022-12-29T16:01:16;5.43;;;4.60;;
10902;SDS011;5504;47.312;11.060;2022-12-29T16:03:50;4.87;;;4.40;;
10902;SDS011;5504;47.312;11.060;2022-12-29T16:06:36;4.57;;;3.30;;
10902;SDS011;5504;47.312;11.060;2022-12-29T16:09:13;5.13;;;4.20;;
10902;SDS011;5504;47.312;11.060;2022-12-29T16:14:17;4.90;;;3.83;;
10902;SDS011;5504;47.312;11.060;2022-12-29T16:16:45;3.83;;;3.30;;
10902;SDS011;5504;47.312;11.060;2022-12-29T16:19:14;2.87;;;2.47;;
10902;SDS011;5504;47.312;11.060;2022-12-29T16:21:54;3.80;;;3.30;;
10902;SDS011;5504;47.312;11.060;2022-12-29T16:24:20;3.50;;;3.10;;
10902;SDS011;5504;47.312;11.060;2022-12-29T16:27:06;4.03;;;3.13;;
10902;SDS011;5504;47.312;11.060;2022-12-29T16:29:35;5.00;;;3.00;;
10902;SDS011;5504;47.312;11.060;2022-12-29T16:32:01;4.73;;;3.47;;
10902;SDS011;5504;47.312;11.060;2022-12-29T16:37:24;9.73;;;5.50;;
10902;SDS011;5504;47.312;11.060;2022-12-29T16:40:18;5.90;;;3.50;;
10902;SDS011;5504;47.312;11.060;2022-12-29T16:50:35;6.80;;;4.30;;
10902;SDS011;5504;47.312;11.060;2022-12-29T16:53:03;9.93;;;6.03;;
10902;SDS011;5504;47.312;11.060;2022-12-29T16:55:30;4.70;;;3.43;;
10902;SDS011;5504;47.312;11.060;2022-12-29T16:57:56;3.80;;;2.90;;
10902;SDS011;5504;47.312;11.060;2022-12-29T17:00:35;9.57;;;5.30;;
10902;SDS011;5504;47.312;11.060;2022-12-29T17:03:01;6.97;;;4.70;;
10902;SDS011;5504;47.312;11.060;2022-12-29T17:05:28;6.43;;;4.80;;
10902;SDS011;5504;47.312;11.060;2022-12-29T17:07:54;5.67;;;4.33;;
10902;SDS011;5504;47.312;11.060;2022-12-29T17:10:27;7.87;;;4.10;;
10902;SDS011;5504;47.312;11.060;2022-12-29T17:13:13;5.37;;;4.17;;
10902;SDS011;5504;47.312;11.060;2022-12-29T17:15:38;6.30;;;4.50;;
10902;SDS011;5504;47.312;11.060;2022-12-29T17:18:04;6.77;;;4.17;;
10902;SDS011;5504;47.312;11.060;2022-12-29T17:20:30;4.63;;;3.30;;
10902;SDS011;5504;47.312;11.060;2022-12-29T17:22:57;4.13;;;2.70;;
10902;SDS011;5504;47.312;11.060;2022-12-29T17:25:34;5.33;;;2.90;;
10902;SDS011;5504;47.312;11.060;2022-12-29T17:28:02;4.13;;;2.87;;
10902;SDS011;5504;47.312;11.060;2022-12-29T17:30:36;3.60;;;2.60;;
10902;SDS011;5504;47.312;11.060;2022-12-29T17:35:34;7.17;;;4.63;;
10902;SDS011;5504;47.312;11.060;2022-12-29T17:38:00;4.47;;;3.70;;
10902;SDS011;5504;47.312;11.060;2022-12-29T17:40:27;5.90;;;4.10;;
10902;SDS011;5504;47.312;11.060;2022-12-29T17:42:55;4.87;;;3.70;;
10902;SDS011;5504;47.312;11.060;2022-12-29T17:45:25;4.53;;;3.43;;
10902;SDS011;5504;47.312;11.060;2022-12-29T17:47:51;5.70;;;4.00;;
10902;SDS011;5504;47.312;11.060;2022-12-29T17:50:18;4.97;;;3.90;;
10902;SDS011;5504;47.312;11.060;2022-12-29T17:52:55;4.33;;;3.47;;
10902;SDS011;5504;47.312;11.060;2022-12-29T17:55:25;4.87;;;4.23;;
10902;SDS011;5504;47.312;11.060;2022-12-29T17:57:51;4.77;;;4.10;;
10902;SDS011;5504;47.312;11.060;2022-12-29T18:00:21;4.57;;;3.70;;